sensor_id;sensor_type;location;lat;lon;timestamp;temperature;humidity
79571;DHT22;69034;49.444;7.758;2023-09-18T00:01:17;23.30;52.20
79571;DHT22;69034;49.444;7.758;2023-09-18T00:05:20;23.50;52.10
79571;DHT22;69034;49.444;7.758;2023-09-18T00:09:21;23.60;51.90
79571;DHT22;69034;49.444;7.758;2023-09-18T00:13:22;23.70;52.00
79571;DHT22;69034;49.444;7.758;2023-09-18T00:17:23;23.70;52.10
79571;DHT22;69034;49.444;7.758;2023-09-18T00:21:25;23.80;52.00
79571;DHT22;69034;49.444;7.758;2023-09-18T00:25:25;23.80;52.00
79571;DHT22;69034;49.444;7.758;2023-09-18T00:29:26;23.80;52.00
79571;DHT22;69034;49.444;7.758;2023-09-18T00:33:27;23.80;51.90
79571;DHT22;69034;49.444;7.758;2023-09-18T00:37:28;23.80;51.90
79571;DHT22;69034;49.444;7.758;2023-09-18T00:41:29;23.80;51.90
79571;DHT22;69034;49.444;7.758;2023-09-18T00:45:30;23.80;51.80
79571;DHT22;69034;49.444;7.758;2023-09-18T00:49:31;23.90;51.80
79571;DHT22;69034;49.444;7.758;2023-09-18T00:53:32;23.90;51.80
79571;DHT22;69034;49.444;7.758;2023-09-18T00:57:32;23.90;51.80
79571;DHT22;69034;49.444;7.758;2023-09-18T01:01:33;24.00;52.00
79571;DHT22;69034;49.444;7.758;2023-09-18T01:05:35;24.00;52.10
79571;DHT22;69034;49.444;7.758;2023-09-18T01:09:36;24.00;52.10
79571;DHT22;69034;49.444;7.758;2023-09-18T01:13:41;24.00;52.00
79571;DHT22;69034;49.444;7.758;2023-09-18T01:17:46;24.00;52.00
79571;DHT22;69034;49.444;7.758;2023-09-18T01:21:47;24.00;51.90
79571;DHT22;69034;49.444;7.758;2023-09-18T01:25:47;23.90;51.90
79571;DHT22;69034;49.444;7.758;2023-09-18T01:29:48;23.90;52.10
79571;DHT22;69034;49.444;7.758;2023-09-18T01:33:50;23.70;52.30
79571;DHT22;69034;49.444;7.758;2023-09-18T01:37:51;23.60;52.50
79571;DHT22;69034;49.444;7.758;2023-09-18T01:41:51;23.50;52.70
79571;DHT22;69034;49.444;7.758;2023-09-18T01:45:52;23.40;52.80
79571;DHT22;69034;49.444;7.758;2023-09-18T01:49:53;23.40;52.70
79571;DHT22;69034;49.444;7.758;2023-09-18T01:53:55;23.40;52.80
79571;DHT22;69034;49.444;7.758;2023-09-18T01:57:56;23.40;52.90
79571;DHT22;69034;49.444;7.758;2023-09-18T02:01:57;23.30;52.80
79571;DHT22;69034;49.444;7.758;2023-09-18T02:05:58;23.30;52.80
79571;DHT22;69034;49.444;7.758;2023-09-18T02:09:58;23.10;53.00
79571;DHT22;69034;49.444;7.758;2023-09-18T02:13:59;23.00;53.20
79571;DHT22;69034;49.444;7.758;2023-09-18T02:18:01;23.00;53.30
79571;DHT22;69034;49.444;7.758;2023-09-18T02:22:02;22.90;53.40
79571;DHT22;69034;49.444;7.758;2023-09-18T02:26:03;22.90;53.60
79571;DHT22;69034;49.444;7.758;2023-09-18T02:30:05;22.90;53.50
79571;DHT22;69034;49.444;7.758;2023-09-18T02:34:06;23.00;53.40
79571;DHT22;69034;49.444;7.758;2023-09-18T02:38:09;23.00;53.50
79571;DHT22;69034;49.444;7.758;2023-09-18T02:42:09;23.00;53.70
79571;DHT22;69034;49.444;7.758;2023-09-18T02:46:10;22.90;54.00
79571;DHT22;69034;49.444;7.758;2023-09-18T02:50:10;22.90;54.40
79571;DHT22;69034;49.444;7.758;2023-09-18T02:54:11;23.00;54.40
79571;DHT22;69034;49.444;7.758;2023-09-18T02:58:13;23.10;54.30
79571;DHT22;69034;49.444;7.758;2023-09-18T03:02:13;23.30;54.40
79571;DHT22;69034;49.444;7.758;2023-09-18T03:06:14;23.40;54.40
79571;DHT22;69034;49.444;7.758;2023-09-18T03:10:14;23.50;54.40
79571;DHT22;69034;49.444;7.758;2023-09-18T03:14:16;23.50;54.50
79571;DHT22;69034;49.444;7.758;2023-09-18T03:18:16;23.60;54.70
79571;DHT22;69034;49.444;7.758;2023-09-18T03:22:17;23.60;54.60
79571;DHT22;69034;49.444;7.758;2023-09-18T03:26:18;23.60;54.70
79571;DHT22;69034;49.444;7.758;2023-09-18T03:30:21;23.60;54.80
79571;DHT22;69034;49.444;7.758;2023-09-18T03:34:24;23.60;54.90
79571;DHT22;69034;49.444;7.758;2023-09-18T03:38:27;23.70;54.80
79571;DHT22;69034;49.444;7.758;2023-09-18T03:42:29;23.70;54.80
79571;DHT22;69034;49.444;7.758;2023-09-18T03:46:30;23.70;54.80
79571;DHT22;69034;49.444;7.758;2023-09-18T03:50:31;23.70;54.90
79571;DHT22;69034;49.444;7.758;2023-09-18T03:54:32;23.70;55.10
79571;DHT22;69034;49.444;7.758;2023-09-18T03:58:32;23.70;55.30
79571;DHT22;69034;49.444;7.758;2023-09-18T04:02:33;23.70;55.40
79571;DHT22;69034;49.444;7.758;2023-09-18T04:06:41;23.70;55.40
79571;DHT22;69034;49.444;7.758;2023-09-18T04:10:42;23.70;55.40
79571;DHT22;69034;49.444;7.758;2023-09-18T04:14:42;23.60;55.30
79571;DHT22;69034;49.444;7.758;2023-09-18T04:18:43;23.60;55.40
79571;DHT22;69034;49.444;7.758;2023-09-18T04:22:45;23.40;55.60
79571;DHT22;69034;49.444;7.758;2023-09-18T04:26:49;23.30;55.90
79571;DHT22;69034;49.444;7.758;2023-09-18T04:30:54;23.10;56.10
79571;DHT22;69034;49.444;7.758;2023-09-18T04:34:56;23.00;56.30
79571;DHT22;69034;49.444;7.758;2023-09-18T04:38:56;23.00;56.40
79571;DHT22;69034;49.444;7.758;2023-09-18T04:42:57;22.90;56.40
79571;DHT22;69034;49.444;7.758;2023-09-18T04:46:58;22.80;56.40
79571;DHT22;69034;49.444;7.758;2023-09-18T04:51:00;22.80;56.70
79571;DHT22;69034;49.444;7.758;2023-09-18T04:55:01;22.70;56.80
79571;DHT22;69034;49.444;7.758;2023-09-18T04:59:01;22.70;56.90
79571;DHT22;69034;49.444;7.758;2023-09-18T05:03:03;22.60;56.90
79571;DHT22;69034;49.444;7.758;2023-09-18T05:07:04;22.60;57.00
79571;DHT22;69034;49.444;7.758;2023-09-18T05:11:31;22.60;57.20
79571;DHT22;69034;49.444;7.758;2023-09-18T05:15:33;22.50;57.60
79571;DHT22;69034;49.444;7.758;2023-09-18T05:19:34;22.50;57.50
79571;DHT22;69034;49.444;7.758;2023-09-18T05:23:34;22.40;57.40
79571;DHT22;69034;49.444;7.758;2023-09-18T05:27:35;22.40;57.40
79571;DHT22;69034;49.444;7.758;2023-09-18T05:31:36;22.40;57.50
79571;DHT22;69034;49.444;7.758;2023-09-18T05:35:42;22.40;57.40
79571;DHT22;69034;49.444;7.758;2023-09-18T05:39:42;22.40;57.50
79571;DHT22;69034;49.444;7.758;2023-09-18T05:43:43;22.50;57.40
79571;DHT22;69034;49.444;7.758;2023-09-18T05:47:44;22.70;57.40
79571;DHT22;69034;49.444;7.758;2023-09-18T05:51:44;22.90;57.30
79571;DHT22;69034;49.444;7.758;2023-09-18T05:55:47;23.10;57.10
79571;DHT22;69034;49.444;7.758;2023-09-18T05:59:47;23.20;56.90
79571;DHT22;69034;49.444;7.758;2023-09-18T06:03:48;23.30;56.80
79571;DHT22;69034;49.444;7.758;2023-09-18T06:07:52;23.40;56.90
79571;DHT22;69034;49.444;7.758;2023-09-18T06:11:53;23.50;56.90
79571;DHT22;69034;49.444;7.758;2023-09-18T06:15:55;23.60;56.70
79571;DHT22;69034;49.444;7.758;2023-09-18T06:19:56;23.70;56.70
79571;DHT22;69034;49.444;7.758;2023-09-18T06:23:57;23.80;56.70
79571;DHT22;69034;49.444;7.758;2023-09-18T06:27:57;23.90;56.70
79571;DHT22;69034;49.444;7.758;2023-09-18T06:32:00;24.00;56.90
79571;DHT22;69034;49.444;7.758;2023-09-18T06:36:03;24.00;56.90
79571;DHT22;69034;49.444;7.758;2023-09-18T06:40:04;24.10;57.00
79571;DHT22;69034;49.444;7.758;2023-09-18T06:44:06;24.10;57.00
79571;DHT22;69034;49.444;7.758;2023-09-18T06:48:08;24.20;56.80
79571;DHT22;69034;49.444;7.758;2023-09-18T06:52:09;24.30;56.70
79571;DHT22;69034;49.444;7.758;2023-09-18T06:56:10;24.30;56.70
79571;DHT22;69034;49.444;7.758;2023-09-18T07:00:11;24.40;56.50
79571;DHT22;69034;49.444;7.758;2023-09-18T07:04:12;24.60;56.40
79571;DHT22;69034;49.444;7.758;2023-09-18T07:08:12;24.70;56.30
79571;DHT22;69034;49.444;7.758;2023-09-18T07:12:13;24.80;56.00
79571;DHT22;69034;49.444;7.758;2023-09-18T07:16:14;24.90;55.90
79571;DHT22;69034;49.444;7.758;2023-09-18T07:20:14;25.00;55.70
79571;DHT22;69034;49.444;7.758;2023-09-18T07:24:15;25.10;55.70
79571;DHT22;69034;49.444;7.758;2023-09-18T07:28:21;25.10;55.70
79571;DHT22;69034;49.444;7.758;2023-09-18T07:32:21;25.10;56.00
79571;DHT22;69034;49.444;7.758;2023-09-18T07:36:22;25.10;55.80
79571;DHT22;69034;49.444;7.758;2023-09-18T07:40:22;25.30;55.50
79571;DHT22;69034;49.444;7.758;2023-09-18T07:44:23;25.60;55.10
79571;DHT22;69034;49.444;7.758;2023-09-18T07:48:24;25.80;54.90
79571;DHT22;69034;49.444;7.758;2023-09-18T07:52:24;26.00;54.50
79571;DHT22;69034;49.444;7.758;2023-09-18T07:56:25;26.20;54.30
79571;DHT22;69034;49.444;7.758;2023-09-18T08:00:25;26.40;54.10
79571;DHT22;69034;49.444;7.758;2023-09-18T08:04:26;26.50;54.00
79571;DHT22;69034;49.444;7.758;2023-09-18T08:08:27;26.50;53.80
79571;DHT22;69034;49.444;7.758;2023-09-18T08:12:27;26.70;53.60
79571;DHT22;69034;49.444;7.758;2023-09-18T08:16:28;26.70;53.50
79571;DHT22;69034;49.444;7.758;2023-09-18T08:20:29;26.70;53.50
79571;DHT22;69034;49.444;7.758;2023-09-18T08:24:30;26.70;53.40
79571;DHT22;69034;49.444;7.758;2023-09-18T08:28:31;26.70;53.30
79571;DHT22;69034;49.444;7.758;2023-09-18T08:32:32;26.80;53.20
79571;DHT22;69034;49.444;7.758;2023-09-18T08:36:34;27.00;52.80
79571;DHT22;69034;49.444;7.758;2023-09-18T08:40:35;27.40;52.30
79571;DHT22;69034;49.444;7.758;2023-09-18T08:44:38;27.70;51.50
79571;DHT22;69034;49.444;7.758;2023-09-18T08:48:40;28.10;50.90
79571;DHT22;69034;49.444;7.758;2023-09-18T08:52:41;28.40;50.50
79571;DHT22;69034;49.444;7.758;2023-09-18T08:56:42;28.70;50.00
79571;DHT22;69034;49.444;7.758;2023-09-18T09:00:42;28.80;49.70
79571;DHT22;69034;49.444;7.758;2023-09-18T09:04:43;28.80;49.50
79571;DHT22;69034;49.444;7.758;2023-09-18T09:08:44;28.80;49.40
79571;DHT22;69034;49.444;7.758;2023-09-18T09:13:00;28.70;49.30
79571;DHT22;69034;49.444;7.758;2023-09-18T09:17:02;28.70;48.90
79571;DHT22;69034;49.444;7.758;2023-09-18T09:21:04;29.00;48.30
79571;DHT22;69034;49.444;7.758;2023-09-18T09:29:21;29.90;46.80
79571;DHT22;69034;49.444;7.758;2023-09-18T09:33:24;30.10;46.40
79571;DHT22;69034;49.444;7.758;2023-09-18T09:37:30;30.40;46.10
79571;DHT22;69034;49.444;7.758;2023-09-18T09:41:31;30.70;45.60
79571;DHT22;69034;49.444;7.758;2023-09-18T09:45:32;30.80;45.10
79571;DHT22;69034;49.444;7.758;2023-09-18T09:49:47;30.90;44.70
79571;DHT22;69034;49.444;7.758;2023-09-18T09:53:48;30.80;44.90
79571;DHT22;69034;49.444;7.758;2023-09-18T09:58:11;30.80;44.60
79571;DHT22;69034;49.444;7.758;2023-09-18T10:02:14;30.90;44.30
79571;DHT22;69034;49.444;7.758;2023-09-18T10:06:19;31.20;43.90
79571;DHT22;69034;49.444;7.758;2023-09-18T10:10:21;31.40;43.50
79571;DHT22;69034;49.444;7.758;2023-09-18T10:14:33;31.50;43.40
79571;DHT22;69034;49.444;7.758;2023-09-18T10:18:50;31.60;43.30
79571;DHT22;69034;49.444;7.758;2023-09-18T10:22:56;31.40;43.50
79571;DHT22;69034;49.444;7.758;2023-09-18T10:27:01;31.30;43.60
79571;DHT22;69034;49.444;7.758;2023-09-18T10:31:04;31.40;43.40
79571;DHT22;69034;49.444;7.758;2023-09-18T10:35:07;31.40;43.20
79571;DHT22;69034;49.444;7.758;2023-09-18T10:39:12;31.60;42.80
79571;DHT22;69034;49.444;7.758;2023-09-18T10:43:15;31.70;42.60
79571;DHT22;69034;49.444;7.758;2023-09-18T10:47:18;31.70;42.70
79571;DHT22;69034;49.444;7.758;2023-09-18T10:51:23;31.80;42.60
79571;DHT22;69034;49.444;7.758;2023-09-18T10:55:25;31.90;42.30
79571;DHT22;69034;49.444;7.758;2023-09-18T10:59:27;31.80;42.40
79571;DHT22;69034;49.444;7.758;2023-09-18T11:03:29;31.70;42.50
79571;DHT22;69034;49.444;7.758;2023-09-18T11:07:30;31.60;42.70
79571;DHT22;69034;49.444;7.758;2023-09-18T11:11:31;31.50;42.70
79571;DHT22;69034;49.444;7.758;2023-09-18T11:15:33;31.40;42.80
79571;DHT22;69034;49.444;7.758;2023-09-18T11:19:34;31.30;42.90
79571;DHT22;69034;49.444;7.758;2023-09-18T11:23:36;31.20;43.00
79571;DHT22;69034;49.444;7.758;2023-09-18T11:27:52;31.00;43.20
79571;DHT22;69034;49.444;7.758;2023-09-18T11:31:56;30.70;43.60
79571;DHT22;69034;49.444;7.758;2023-09-18T11:36:12;30.90;43.40
79571;DHT22;69034;49.444;7.758;2023-09-18T11:40:29;31.00;43.20
79571;DHT22;69034;49.444;7.758;2023-09-18T11:44:34;31.30;42.90
79571;DHT22;69034;49.444;7.758;2023-09-18T11:48:38;31.40;42.80
79571;DHT22;69034;49.444;7.758;2023-09-18T11:52:42;31.50;42.60
79571;DHT22;69034;49.444;7.758;2023-09-18T11:56:43;32.10;42.00
79571;DHT22;69034;49.444;7.758;2023-09-18T12:00:44;32.20;41.60
79571;DHT22;69034;49.444;7.758;2023-09-18T12:04:48;32.30;41.40
79571;DHT22;69034;49.444;7.758;2023-09-18T12:08:52;32.50;41.20
79571;DHT22;69034;49.444;7.758;2023-09-18T12:12:53;32.60;41.10
79571;DHT22;69034;49.444;7.758;2023-09-18T12:16:54;32.50;41.00
79571;DHT22;69034;49.444;7.758;2023-09-18T12:20:55;32.70;40.70
79571;DHT22;69034;49.444;7.758;2023-09-18T12:25:13;33.10;40.30
79571;DHT22;69034;49.444;7.758;2023-09-18T12:29:15;33.40;39.70
79571;DHT22;69034;49.444;7.758;2023-09-18T12:33:16;34.00;39.20
79571;DHT22;69034;49.444;7.758;2023-09-18T12:37:17;34.20;38.60
79571;DHT22;69034;49.444;7.758;2023-09-18T12:41:18;34.10;38.70
79571;DHT22;69034;49.444;7.758;2023-09-18T12:45:19;33.90;39.00
79571;DHT22;69034;49.444;7.758;2023-09-18T12:49:21;33.80;39.00
79571;DHT22;69034;49.444;7.758;2023-09-18T12:53:23;33.90;38.70
79571;DHT22;69034;49.444;7.758;2023-09-18T12:57:23;33.80;38.70
79571;DHT22;69034;49.444;7.758;2023-09-18T13:01:24;33.80;38.70
79571;DHT22;69034;49.444;7.758;2023-09-18T13:05:25;33.80;38.60
79571;DHT22;69034;49.444;7.758;2023-09-18T13:09:26;33.80;38.60
79571;DHT22;69034;49.444;7.758;2023-09-18T13:13:27;33.70;38.50
79571;DHT22;69034;49.444;7.758;2023-09-18T13:17:28;33.30;39.00
79571;DHT22;69034;49.444;7.758;2023-09-18T13:21:36;34.50;38.30
79571;DHT22;69034;49.444;7.758;2023-09-18T13:25:39;37.80;35.00
79571;DHT22;69034;49.444;7.758;2023-09-18T13:29:43;39.90;32.60
79571;DHT22;69034;49.444;7.758;2023-09-18T13:33:43;41.50;31.60
79571;DHT22;69034;49.444;7.758;2023-09-18T13:37:45;40.70;31.40
79571;DHT22;69034;49.444;7.758;2023-09-18T13:41:46;40.00;31.30
79571;DHT22;69034;49.444;7.758;2023-09-18T13:45:46;40.60;30.80
79571;DHT22;69034;49.444;7.758;2023-09-18T13:49:47;41.10;30.30
79571;DHT22;69034;49.444;7.758;2023-09-18T13:53:48;42.40;29.10
79571;DHT22;69034;49.444;7.758;2023-09-18T13:57:49;42.30;29.20
79571;DHT22;69034;49.444;7.758;2023-09-18T14:01:49;43.30;28.20
79571;DHT22;69034;49.444;7.758;2023-09-18T14:05:52;43.50;27.20
79571;DHT22;69034;49.444;7.758;2023-09-18T14:09:53;42.70;27.50
79571;DHT22;69034;49.444;7.758;2023-09-18T14:13:54;42.20;27.30
79571;DHT22;69034;49.444;7.758;2023-09-18T14:17:54;42.50;27.40
79571;DHT22;69034;49.444;7.758;2023-09-18T14:21:55;40.30;28.70
79571;DHT22;69034;49.444;7.758;2023-09-18T14:25:56;39.40;30.00
79571;DHT22;69034;49.444;7.758;2023-09-18T14:29:58;37.80;30.50
79571;DHT22;69034;49.444;7.758;2023-09-18T14:33:58;39.50;29.00
79571;DHT22;69034;49.444;7.758;2023-09-18T14:38:00;37.90;30.40
79571;DHT22;69034;49.444;7.758;2023-09-18T14:42:04;36.30;31.60
79571;DHT22;69034;49.444;7.758;2023-09-18T14:46:05;35.90;32.00
79571;DHT22;69034;49.444;7.758;2023-09-18T14:50:06;35.70;32.40
79571;DHT22;69034;49.444;7.758;2023-09-18T14:54:07;36.40;31.80
79571;DHT22;69034;49.444;7.758;2023-09-18T14:58:08;38.40;30.00
79571;DHT22;69034;49.444;7.758;2023-09-18T15:02:09;37.10;31.30
79571;DHT22;69034;49.444;7.758;2023-09-18T15:06:10;37.80;30.90
79571;DHT22;69034;49.444;7.758;2023-09-18T15:10:10;37.60;30.70
79571;DHT22;69034;49.444;7.758;2023-09-18T15:14:11;36.30;31.80
79571;DHT22;69034;49.444;7.758;2023-09-18T15:18:12;36.20;31.80
79571;DHT22;69034;49.444;7.758;2023-09-18T15:22:12;35.30;32.70
79571;DHT22;69034;49.444;7.758;2023-09-18T15:26:13;34.30;33.70
79571;DHT22;69034;49.444;7.758;2023-09-18T15:30:14;33.40;34.50
79571;DHT22;69034;49.444;7.758;2023-09-18T15:34:15;32.60;35.30
79571;DHT22;69034;49.444;7.758;2023-09-18T15:38:17;31.90;36.20
79571;DHT22;69034;49.444;7.758;2023-09-18T15:42:18;31.20;37.20
79571;DHT22;69034;49.444;7.758;2023-09-18T15:46:18;30.60;38.40
79571;DHT22;69034;49.444;7.758;2023-09-18T15:50:19;30.00;39.70
79571;DHT22;69034;49.444;7.758;2023-09-18T15:54:20;29.50;40.70
79571;DHT22;69034;49.444;7.758;2023-09-18T15:58:20;29.10;41.60
79571;DHT22;69034;49.444;7.758;2023-09-18T16:02:24;28.80;42.50
79571;DHT22;69034;49.444;7.758;2023-09-18T16:06:25;28.60;42.90
79571;DHT22;69034;49.444;7.758;2023-09-18T16:10:26;28.40;43.50
79571;DHT22;69034;49.444;7.758;2023-09-18T16:14:27;28.20;43.90
79571;DHT22;69034;49.444;7.758;2023-09-18T16:18:28;28.00;44.90
79571;DHT22;69034;49.444;7.758;2023-09-18T16:22:29;27.80;45.60
79571;DHT22;69034;49.444;7.758;2023-09-18T16:26:29;27.60;46.30
79571;DHT22;69034;49.444;7.758;2023-09-18T16:30:30;27.40;47.00
79571;DHT22;69034;49.444;7.758;2023-09-18T16:34:32;27.30;47.60
79571;DHT22;69034;49.444;7.758;2023-09-18T16:38:34;27.10;48.20
79571;DHT22;69034;49.444;7.758;2023-09-18T16:42:41;27.00;48.50
79571;DHT22;69034;49.444;7.758;2023-09-18T16:46:45;26.90;48.60
79571;DHT22;69034;49.444;7.758;2023-09-18T16:51:05;26.80;49.30
79571;DHT22;69034;49.444;7.758;2023-09-18T16:55:06;26.70;49.70
79571;DHT22;69034;49.444;7.758;2023-09-18T16:59:07;26.60;49.80
79571;DHT22;69034;49.444;7.758;2023-09-18T17:03:07;26.50;49.80
79571;DHT22;69034;49.444;7.758;2023-09-18T17:07:08;26.40;50.10
79571;DHT22;69034;49.444;7.758;2023-09-18T17:11:09;26.40;50.20
79571;DHT22;69034;49.444;7.758;2023-09-18T17:15:11;26.30;50.60
79571;DHT22;69034;49.444;7.758;2023-09-18T17:19:11;26.10;50.80
79571;DHT22;69034;49.444;7.758;2023-09-18T17:23:13;26.10;50.90
79571;DHT22;69034;49.444;7.758;2023-09-18T17:27:14;26.00;51.30
79571;DHT22;69034;49.444;7.758;2023-09-18T17:31:14;25.90;51.70
79571;DHT22;69034;49.444;7.758;2023-09-18T17:35:15;25.80;52.10
79571;DHT22;69034;49.444;7.758;2023-09-18T17:39:16;25.70;52.50
79571;DHT22;69034;49.444;7.758;2023-09-18T17:43:16;25.60;52.70
79571;DHT22;69034;49.444;7.758;2023-09-18T17:47:17;25.40;53.00
79571;DHT22;69034;49.444;7.758;2023-09-18T17:51:18;25.30;53.00
79571;DHT22;69034;49.444;7.758;2023-09-18T17:55:18;25.20;53.20
79571;DHT22;69034;49.444;7.758;2023-09-18T17:59:20;25.00;53.30
79571;DHT22;69034;49.444;7.758;2023-09-18T18:03:20;24.90;53.20
79571;DHT22;69034;49.444;7.758;2023-09-18T18:07:21;24.90;53.30
79571;DHT22;69034;49.444;7.758;2023-09-18T18:11:22;24.80;53.40
79571;DHT22;69034;49.444;7.758;2023-09-18T18:15:23;24.70;53.50
79571;DHT22;69034;49.444;7.758;2023-09-18T18:19:23;24.60;53.60
79571;DHT22;69034;49.444;7.758;2023-09-18T18:23:24;24.70;53.80
79571;DHT22;69034;49.444;7.758;2023-09-18T18:27:25;24.70;53.70
79571;DHT22;69034;49.444;7.758;2023-09-18T18:31:26;24.70;53.70
79571;DHT22;69034;49.444;7.758;2023-09-18T18:35:27;24.60;53.90
79571;DHT22;69034;49.444;7.758;2023-09-18T18:39:27;24.60;54.00
79571;DHT22;69034;49.444;7.758;2023-09-18T18:43:29;24.60;54.00
79571;DHT22;69034;49.444;7.758;2023-09-18T18:47:30;24.60;54.10
79571;DHT22;69034;49.444;7.758;2023-09-18T18:51:31;24.50;54.10
79571;DHT22;69034;49.444;7.758;2023-09-18T18:55:32;24.50;54.00
79571;DHT22;69034;49.444;7.758;2023-09-18T18:59:33;24.40;54.30
79571;DHT22;69034;49.444;7.758;2023-09-18T19:03:34;24.40;54.30
79571;DHT22;69034;49.444;7.758;2023-09-18T19:07:35;24.30;54.40
79571;DHT22;69034;49.444;7.758;2023-09-18T19:11:37;24.20;54.70
79571;DHT22;69034;49.444;7.758;2023-09-18T19:15:38;24.10;54.80
79571;DHT22;69034;49.444;7.758;2023-09-18T19:19:39;24.10;55.00
79571;DHT22;69034;49.444;7.758;2023-09-18T19:23:40;24.00;55.20
79571;DHT22;69034;49.444;7.758;2023-09-18T19:27:44;24.00;55.30
79571;DHT22;69034;49.444;7.758;2023-09-18T19:31:44;24.00;55.50
79571;DHT22;69034;49.444;7.758;2023-09-18T19:35:48;23.90;55.50
79571;DHT22;69034;49.444;7.758;2023-09-18T19:39:50;23.90;55.50
79571;DHT22;69034;49.444;7.758;2023-09-18T19:43:50;23.80;55.80
79571;DHT22;69034;49.444;7.758;2023-09-18T19:47:51;23.80;55.90
79571;DHT22;69034;49.444;7.758;2023-09-18T19:51:52;23.80;56.00
79571;DHT22;69034;49.444;7.758;2023-09-18T19:55:53;23.70;56.10
79571;DHT22;69034;49.444;7.758;2023-09-18T19:59:54;23.70;56.10
79571;DHT22;69034;49.444;7.758;2023-09-18T20:03:54;23.70;56.30
79571;DHT22;69034;49.444;7.758;2023-09-18T20:07:55;23.70;56.40
79571;DHT22;69034;49.444;7.758;2023-09-18T20:11:56;23.70;56.50
79571;DHT22;69034;49.444;7.758;2023-09-18T20:15:59;23.60;56.60
79571;DHT22;69034;49.444;7.758;2023-09-18T20:20:00;23.60;56.50
79571;DHT22;69034;49.444;7.758;2023-09-18T20:24:01;23.60;56.70
79571;DHT22;69034;49.444;7.758;2023-09-18T20:28:01;23.60;56.80
79571;DHT22;69034;49.444;7.758;2023-09-18T20:32:02;23.50;56.90
79571;DHT22;69034;49.444;7.758;2023-09-18T20:36:05;23.50;56.90
79571;DHT22;69034;49.444;7.758;2023-09-18T20:40:06;23.50;57.00
79571;DHT22;69034;49.444;7.758;2023-09-18T20:44:07;23.40;57.20
79571;DHT22;69034;49.444;7.758;2023-09-18T20:48:08;23.30;57.40
79571;DHT22;69034;49.444;7.758;2023-09-18T20:52:08;23.30;57.50
79571;DHT22;69034;49.444;7.758;2023-09-18T20:56:09;23.30;57.60
79571;DHT22;69034;49.444;7.758;2023-09-18T21:00:10;23.30;57.60
79571;DHT22;69034;49.444;7.758;2023-09-18T21:04:11;23.10;57.40
79571;DHT22;69034;49.444;7.758;2023-09-18T21:08:12;22.90;57.50
79571;DHT22;69034;49.444;7.758;2023-09-18T21:12:13;22.70;57.70
79571;DHT22;69034;49.444;7.758;2023-09-18T21:16:16;22.50;57.70
79571;DHT22;69034;49.444;7.758;2023-09-18T21:20:17;22.40;57.90
79571;DHT22;69034;49.444;7.758;2023-09-18T21:24:17;22.30;58.00
79571;DHT22;69034;49.444;7.758;2023-09-18T21:28:18;22.20;58.10
79571;DHT22;69034;49.444;7.758;2023-09-18T21:32:18;22.10;58.10
79571;DHT22;69034;49.444;7.758;2023-09-18T21:36:21;22.10;58.10
79571;DHT22;69034;49.444;7.758;2023-09-18T21:40:21;22.00;58.20
79571;DHT22;69034;49.444;7.758;2023-09-18T21:44:24;21.90;58.20
79571;DHT22;69034;49.444;7.758;2023-09-18T21:48:25;21.90;58.30
79571;DHT22;69034;49.444;7.758;2023-09-18T21:52:25;21.80;58.40
79571;DHT22;69034;49.444;7.758;2023-09-18T21:56:26;21.80;58.50
79571;DHT22;69034;49.444;7.758;2023-09-18T22:00:28;21.80;58.60
79571;DHT22;69034;49.444;7.758;2023-09-18T22:04:28;21.80;58.70
79571;DHT22;69034;49.444;7.758;2023-09-18T22:08:29;21.80;58.70
79571;DHT22;69034;49.444;7.758;2023-09-18T22:12:30;21.80;58.60
79571;DHT22;69034;49.444;7.758;2023-09-18T22:16:31;21.90;58.70
79571;DHT22;69034;49.444;7.758;2023-09-18T22:20:32;21.90;58.70
79571;DHT22;69034;49.444;7.758;2023-09-18T22:24:33;21.90;58.70
79571;DHT22;69034;49.444;7.758;2023-09-18T22:28:34;21.90;58.70
79571;DHT22;69034;49.444;7.758;2023-09-18T22:32:37;21.90;58.70
79571;DHT22;69034;49.444;7.758;2023-09-18T22:36:38;21.90;58.60
79571;DHT22;69034;49.444;7.758;2023-09-18T22:57:59;21.80;58.80
79571;DHT22;69034;49.444;7.758;2023-09-18T23:02:01;21.70;59.00
79571;DHT22;69034;49.444;7.758;2023-09-18T23:06:03;21.60;59.20
79571;DHT22;69034;49.444;7.758;2023-09-18T23:10:04;21.50;59.40
79571;DHT22;69034;49.444;7.758;2023-09-18T23:14:04;21.50;59.50
79571;DHT22;69034;49.444;7.758;2023-09-18T23:18:05;21.50;59.40
79571;DHT22;69034;49.444;7.758;2023-09-18T23:22:11;21.60;59.30
79571;DHT22;69034;49.444;7.758;2023-09-18T23:26:12;21.60;59.10
79571;DHT22;69034;49.444;7.758;2023-09-18T23:30:16;21.70;59.00
79571;DHT22;69034;49.444;7.758;2023-09-18T23:34:20;21.80;59.00
79571;DHT22;69034;49.444;7.758;2023-09-18T23:38:23;21.80;59.00
79571;DHT22;69034;49.444;7.758;2023-09-18T23:42:27;21.70;59.10
79571;DHT22;69034;49.444;7.758;2023-09-18T23:46:28;21.70;59.30
79571;DHT22;69034;49.444;7.758;2023-09-18T23:50:29;21.70;59.30
79571;DHT22;69034;49.444;7.758;2023-09-18T23:54:30;21.60;59.50
79571;DHT22;69034;49.444;7.758;2023-09-18T23:58:31;21.50;59.70
